createdAt,value
2023-02-24T00:00:48.283Z,584.00
2023-02-24T00:01:48.283Z,583.00
2023-02-24T00:02:48.332Z,583.00
2023-02-24T00:03:48.354Z,585.00
2023-02-24T00:04:48.265Z,585.00
2023-02-24T00:05:48.266Z,584.00
2023-02-24T00:06:48.272Z,584.00
2023-02-24T00:07:48.260Z,585.00
2023-02-24T00:08:48.255Z,588.00
2023-02-24T00:09:48.251Z,586.00
2023-02-24T00:10:48.255Z,589.00
2023-02-24T00:11:48.238Z,590.00
2023-02-24T00:12:48.237Z,590.00
2023-02-24T00:13:48.230Z,591.00
2023-02-24T00:14:48.213Z,591.00
2023-02-24T00:15:48.207Z,590.00
2023-02-24T00:16:48.407Z,590.00
2023-02-24T00:17:48.201Z,589.00
2023-02-24T00:18:48.176Z,586.00
2023-02-24T00:19:48.173Z,587.00
2023-02-24T00:20:48.169Z,588.00
2023-02-24T00:21:48.178Z,589.00
2023-02-24T00:22:48.155Z,588.00
2023-02-24T00:23:48.148Z,591.00
2023-02-24T00:24:48.146Z,592.00
2023-02-24T00:25:48.149Z,592.00
2023-02-24T00:26:48.127Z,592.00
2023-02-24T00:27:48.116Z,592.00
2023-02-24T00:28:48.101Z,592.00
2023-02-24T00:29:48.186Z,592.00
2023-02-24T00:30:48.121Z,592.00
2023-02-24T00:31:48.220Z,592.00
2023-02-24T00:32:48.203Z,592.00
2023-02-24T00:33:48.072Z,591.00
2023-02-24T00:34:48.065Z,592.00
2023-02-24T00:35:48.065Z,591.00
2023-02-24T00:36:48.047Z,590.00
2023-02-24T00:37:48.052Z,591.00
2023-02-24T00:38:48.051Z,590.00
2023-02-24T00:39:48.043Z,592.00
2023-02-24T00:40:48.018Z,594.00
2023-02-24T00:41:48.013Z,592.00
2023-02-24T00:42:47.995Z,593.00
2023-02-24T00:43:48.012Z,593.00
2023-02-24T00:44:47.997Z,596.00
2023-02-24T00:45:47.975Z,597.00
2023-02-24T00:46:47.965Z,596.00
2023-02-24T00:47:47.959Z,595.00
2023-02-24T00:48:47.971Z,596.00
2023-02-24T00:49:47.946Z,594.00
2023-02-24T00:50:47.932Z,592.00
2023-02-24T00:51:47.925Z,592.00
2023-02-24T00:52:47.907Z,591.00
2023-02-24T00:53:47.907Z,589.00
2023-02-24T00:54:47.900Z,590.00
2023-02-24T00:55:47.882Z,591.00
2023-02-24T00:56:47.878Z,591.00
2023-02-24T00:57:47.865Z,594.00
2023-02-24T00:58:47.865Z,595.00
2023-02-24T00:59:47.946Z,597.00
2023-02-24T01:00:47.832Z,597.00
2023-02-24T01:01:47.887Z,598.00
2023-02-24T01:02:47.827Z,598.00
2023-02-24T01:03:47.861Z,598.00
2023-02-24T01:04:47.770Z,595.00
2023-02-24T01:05:47.770Z,593.00
2023-02-24T01:06:47.762Z,593.00
2023-02-24T01:07:47.787Z,597.00
2023-02-24T01:08:47.745Z,597.00
2023-02-24T01:09:47.734Z,597.00
2023-02-24T01:10:47.729Z,596.00
2023-02-24T01:11:47.738Z,597.00
2023-02-24T01:12:47.708Z,595.00
2023-02-24T01:13:47.704Z,597.00
2023-02-24T01:14:47.845Z,596.00
2023-02-24T01:15:47.719Z,595.00
2023-02-24T01:16:47.685Z,593.00
2023-02-24T01:17:47.684Z,591.00
2023-02-24T01:18:47.679Z,590.00
2023-02-24T01:19:47.667Z,589.00
2023-02-24T01:20:47.670Z,590.00
2023-02-24T01:21:47.665Z,591.00
2023-02-24T01:22:47.665Z,593.00
2023-02-24T01:23:47.665Z,594.00
2023-02-24T01:24:47.656Z,595.00
2023-02-24T01:25:47.651Z,596.00
2023-02-24T01:26:47.641Z,595.00
2023-02-24T01:27:47.653Z,593.00
2023-02-24T01:28:47.650Z,592.00
2023-02-24T01:29:47.682Z,591.00
2023-02-24T01:30:47.655Z,590.00
2023-02-24T01:31:49.887Z,592.00
2023-02-24T01:32:48.192Z,591.00
2023-02-24T01:33:47.654Z,592.00
2023-02-24T01:34:47.651Z,591.00
2023-02-24T01:35:47.650Z,589.00
2023-02-24T01:36:47.633Z,587.00
2023-02-24T01:37:47.627Z,585.00
2023-02-24T01:38:47.628Z,583.00
2023-02-24T01:39:47.671Z,583.00
2023-02-24T01:40:47.641Z,582.00
2023-02-24T01:41:47.695Z,582.00
2023-02-24T01:42:47.933Z,582.00
2023-02-24T01:43:47.748Z,583.00
2023-02-24T01:44:47.916Z,581.00
2023-02-24T01:45:47.740Z,581.00
2023-02-24T01:46:47.748Z,579.00
2023-02-24T01:47:47.772Z,577.00
2023-02-24T01:48:47.761Z,578.00
2023-02-24T01:49:47.739Z,580.00
2023-02-24T01:50:47.725Z,581.00
2023-02-24T01:51:47.717Z,583.00
2023-02-24T01:52:47.724Z,584.00
2023-02-24T01:53:47.711Z,587.00
2023-02-24T01:54:47.702Z,588.00
2023-02-24T01:55:47.694Z,588.00
2023-02-24T01:56:47.689Z,585.00
2023-02-24T01:57:47.684Z,585.00
2023-02-24T01:58:47.673Z,585.00
2023-02-24T01:59:47.681Z,583.00
2023-02-24T02:00:47.722Z,585.00
2023-02-24T02:01:47.732Z,587.00
2023-02-24T02:02:47.851Z,586.00
2023-02-24T02:03:47.638Z,586.00
2023-02-24T02:04:47.655Z,587.00
2023-02-24T02:05:47.642Z,587.00
2023-02-24T02:06:47.616Z,586.00
2023-02-24T02:07:47.607Z,584.00
2023-02-24T02:08:47.611Z,583.00
2023-02-24T02:09:47.600Z,581.00
2023-02-24T02:10:47.620Z,580.00
2023-02-24T02:11:47.615Z,578.00
2023-02-24T02:12:47.636Z,579.00
2023-02-24T02:13:47.700Z,577.00
2023-02-24T02:14:47.638Z,579.00
2023-02-24T02:15:47.643Z,580.00
2023-02-24T02:16:47.646Z,582.00
2023-02-24T02:17:47.649Z,581.00
2023-02-24T02:18:47.663Z,577.00
2023-02-24T02:19:47.686Z,576.00
2023-02-24T02:20:47.671Z,576.00
2023-02-24T02:21:47.690Z,577.00
2023-02-24T02:22:47.684Z,577.00
2023-02-24T02:23:47.690Z,579.00
2023-02-24T02:24:47.697Z,579.00
2023-02-24T02:25:47.694Z,583.00
2023-02-24T02:26:47.687Z,582.00
2023-02-24T02:27:47.701Z,584.00
2023-02-24T02:28:47.705Z,584.00
2023-02-24T02:29:47.716Z,585.00
2023-02-24T02:30:47.742Z,583.00
2023-02-24T02:31:47.789Z,581.00
2023-02-24T02:32:47.860Z,582.00
2023-02-24T02:33:47.736Z,582.00
2023-02-24T02:34:47.750Z,582.00
2023-02-24T02:35:47.741Z,580.00
2023-02-24T02:36:47.741Z,581.00
2023-02-24T02:37:47.799Z,579.00
2023-02-24T02:38:47.754Z,579.00
2023-02-24T02:39:47.767Z,578.00
2023-02-24T02:40:47.762Z,579.00
2023-02-24T02:41:47.771Z,579.00
2023-02-24T02:42:47.774Z,578.00
2023-02-24T02:43:47.789Z,576.00
2023-02-24T02:44:47.793Z,577.00
2023-02-24T02:45:47.980Z,577.00
2023-02-24T02:46:47.788Z,577.00
2023-02-24T02:47:47.776Z,579.00
2023-02-24T02:48:47.802Z,578.00
2023-02-24T02:49:47.788Z,579.00
2023-02-24T02:50:47.801Z,582.00
2023-02-24T02:51:47.794Z,584.00
2023-02-24T02:52:47.791Z,583.00
2023-02-24T02:53:47.800Z,585.00
2023-02-24T02:54:47.801Z,586.00
2023-02-24T02:55:47.836Z,587.00
2023-02-24T02:56:47.812Z,589.00
2023-02-24T02:57:47.835Z,589.00
2023-02-24T02:58:47.836Z,589.00
2023-02-24T02:59:47.825Z,587.00
2023-02-24T03:00:47.851Z,585.00
2023-02-24T03:01:47.836Z,582.00
2023-02-24T03:02:47.846Z,582.00
2023-02-24T03:03:47.845Z,582.00
2023-02-24T03:04:47.907Z,584.00
2023-02-24T03:05:47.867Z,582.00
2023-02-24T03:06:47.884Z,584.00
2023-02-24T03:07:47.857Z,584.00
2023-02-24T03:08:47.867Z,587.00
2023-02-24T03:09:47.875Z,588.00
2023-02-24T03:10:47.875Z,589.00
2023-02-24T03:11:47.876Z,587.00
2023-02-24T03:12:47.898Z,585.00
2023-02-24T03:13:47.879Z,585.00
2023-02-24T03:14:47.881Z,585.00
2023-02-24T03:15:47.888Z,585.00
2023-02-24T03:16:47.892Z,583.00
2023-02-24T03:17:47.855Z,583.00
2023-02-24T03:18:47.851Z,584.00
2023-02-24T03:19:47.841Z,583.00
2023-02-24T03:20:47.821Z,582.00
2023-02-24T03:21:47.812Z,581.00
2023-02-24T03:22:47.808Z,582.00
2023-02-24T03:23:47.808Z,582.00
2023-02-24T03:24:47.794Z,581.00
2023-02-24T03:25:47.799Z,582.00
2023-02-24T03:26:47.775Z,582.00
2023-02-24T03:27:47.778Z,582.00
2023-02-24T03:28:47.764Z,586.00
2023-02-24T03:29:47.770Z,584.00
2023-02-24T03:30:47.817Z,583.00
2023-02-24T03:31:47.854Z,581.00
2023-02-24T03:32:47.888Z,577.00
2023-02-24T03:33:47.737Z,577.00
2023-02-24T03:34:47.724Z,578.00
2023-02-24T03:35:47.725Z,577.00
2023-02-24T03:36:47.718Z,574.00
2023-02-24T03:37:47.701Z,573.00
2023-02-24T03:38:47.692Z,573.00
2023-02-24T03:39:47.707Z,573.00
2023-02-24T03:40:47.683Z,574.00
2023-02-24T03:41:47.682Z,573.00
2023-02-24T03:42:47.662Z,574.00
2023-02-24T03:43:47.683Z,573.00
2023-02-24T03:44:47.655Z,571.00
2023-02-24T03:45:47.663Z,571.00
2023-02-24T03:46:47.645Z,569.00
2023-02-24T03:47:47.638Z,570.00
2023-02-24T03:48:47.645Z,570.00
2023-02-24T03:49:47.620Z,571.00
2023-02-24T03:50:47.612Z,573.00
2023-02-24T03:51:47.614Z,575.00
2023-02-24T03:52:47.616Z,574.00
2023-02-24T03:53:47.596Z,572.00
2023-02-24T03:54:47.606Z,572.00
2023-02-24T03:55:47.599Z,570.00
2023-02-24T03:56:47.591Z,569.00
2023-02-24T03:57:47.576Z,570.00
2023-02-24T03:58:47.599Z,569.00
2023-02-24T03:59:47.619Z,571.00
2023-02-24T04:00:47.555Z,571.00
2023-02-24T04:01:47.572Z,572.00
2023-02-24T04:02:47.642Z,574.00
2023-02-24T04:03:47.528Z,574.00
2023-02-24T04:04:47.570Z,572.00
2023-02-24T04:05:47.565Z,574.00
2023-02-24T04:06:47.506Z,574.00
2023-02-24T04:07:47.506Z,576.00
2023-02-24T04:08:47.512Z,580.00
2023-02-24T04:09:47.473Z,583.00
2023-02-24T04:10:47.464Z,583.00
2023-02-24T04:11:47.472Z,581.00
2023-02-24T04:12:47.536Z,579.00
2023-02-24T04:13:47.441Z,581.00
2023-02-24T04:14:47.431Z,582.00
2023-02-24T04:15:47.452Z,583.00
2023-02-24T04:16:47.408Z,584.00
2023-02-24T04:17:47.420Z,585.00
2023-02-24T04:18:47.382Z,585.00
2023-02-24T04:19:47.364Z,587.00
2023-02-24T04:20:47.356Z,584.00
2023-02-24T04:21:47.349Z,583.00
2023-02-24T04:22:47.324Z,583.00
2023-02-24T04:23:47.317Z,584.00
2023-02-24T04:24:47.298Z,586.00
2023-02-24T04:25:47.291Z,584.00
2023-02-24T04:26:47.291Z,584.00
2023-02-24T04:27:47.261Z,584.00
2023-02-24T04:28:47.266Z,583.00
2023-02-24T04:29:47.249Z,582.00
2023-02-24T04:30:47.307Z,581.00
2023-02-24T04:31:47.411Z,581.00
2023-02-24T04:32:47.236Z,581.00
2023-02-24T04:33:47.196Z,582.00
2023-02-24T04:34:47.193Z,582.00
2023-02-24T04:35:47.176Z,582.00
2023-02-24T04:36:47.166Z,582.00
2023-02-24T04:37:47.155Z,582.00
2023-02-24T04:38:47.145Z,584.00
2023-02-24T04:39:47.139Z,585.00
2023-02-24T04:40:47.124Z,586.00
2023-02-24T04:41:47.128Z,588.00
2023-02-24T04:42:47.123Z,582.00
2023-02-24T04:43:47.099Z,582.00
2023-02-24T04:44:47.089Z,585.00
2023-02-24T04:45:47.087Z,590.00
2023-02-24T04:46:47.145Z,592.00
2023-02-24T04:47:47.063Z,591.00
2023-02-24T04:48:47.060Z,590.00
2023-02-24T04:49:47.048Z,589.00
2023-02-24T04:50:47.030Z,589.00
2023-02-24T04:51:47.031Z,589.00
2023-02-24T04:52:47.026Z,591.00
2023-02-24T04:53:47.023Z,593.00
2023-02-24T04:54:47.024Z,592.00
2023-02-24T04:55:46.998Z,590.00
2023-02-24T04:56:46.995Z,591.00
2023-02-24T04:57:46.993Z,593.00
2023-02-24T04:58:46.984Z,594.00
2023-02-24T04:59:47.038Z,597.00
2023-02-24T05:00:46.962Z,595.00
2023-02-24T05:01:46.961Z,597.00
2023-02-24T05:02:46.972Z,595.00
2023-02-24T05:03:46.994Z,594.00
2023-02-24T05:04:46.991Z,592.00
2023-02-24T05:05:46.927Z,592.00
2023-02-24T05:06:46.914Z,592.00
2023-02-24T05:07:46.921Z,590.00
2023-02-24T05:08:46.911Z,591.00
2023-02-24T05:09:46.893Z,590.00
2023-02-24T05:10:46.902Z,591.00
2023-02-24T05:11:46.880Z,593.00
2023-02-24T05:12:46.898Z,592.00
2023-02-24T05:13:46.876Z,591.00
2023-02-24T05:14:46.973Z,595.00
2023-02-24T05:15:46.858Z,597.00
2023-02-24T05:16:46.841Z,597.00
2023-02-24T05:17:46.828Z,596.00
2023-02-24T05:18:46.802Z,595.00
2023-02-24T05:19:46.793Z,593.00
2023-02-24T05:20:46.816Z,592.00
2023-02-24T05:21:46.771Z,592.00
2023-02-24T05:22:46.764Z,593.00
2023-02-24T05:23:46.928Z,595.00
2023-02-24T05:24:46.751Z,593.00
2023-02-24T05:25:46.747Z,593.00
2023-02-24T05:26:46.731Z,597.00
2023-02-24T05:27:46.707Z,598.00
2023-02-24T05:28:46.710Z,596.00
2023-02-24T05:29:46.697Z,594.00
2023-02-24T05:30:46.701Z,590.00
2023-02-24T05:31:46.784Z,590.00
2023-02-24T05:32:46.679Z,591.00
2023-02-24T05:33:46.650Z,589.00
2023-02-24T05:34:46.627Z,588.00
2023-02-24T05:35:46.613Z,588.00
2023-02-24T05:36:46.604Z,585.00
2023-02-24T05:37:46.582Z,586.00
2023-02-24T05:38:46.583Z,586.00
2023-02-24T05:39:46.561Z,587.00
2023-02-24T05:40:46.551Z,585.00
2023-02-24T05:41:46.533Z,586.00
2023-02-24T05:42:46.528Z,588.00
2023-02-24T05:43:46.522Z,588.00
2023-02-24T05:44:46.523Z,587.00
2023-02-24T05:45:46.535Z,586.00
2023-02-24T05:46:46.593Z,587.00
2023-02-24T05:47:46.538Z,587.00
2023-02-24T05:48:46.501Z,585.00
2023-02-24T05:49:46.495Z,586.00
2023-02-24T05:50:46.495Z,586.00
2023-02-24T05:51:46.495Z,585.00
2023-02-24T05:52:46.497Z,585.00
2023-02-24T05:53:46.501Z,584.00
2023-02-24T05:54:46.481Z,585.00
2023-02-24T05:55:46.470Z,586.00
2023-02-24T05:56:46.459Z,586.00
2023-02-24T05:57:46.439Z,584.00
2023-02-24T05:58:46.454Z,582.00
2023-02-24T05:59:46.420Z,581.00
2023-02-24T06:00:46.423Z,582.00
2023-02-24T06:01:46.455Z,580.00
2023-02-24T06:02:46.413Z,581.00
2023-02-24T06:03:46.382Z,582.00
2023-02-24T06:04:46.389Z,584.00
2023-02-24T06:05:46.357Z,583.00
2023-02-24T06:06:46.341Z,585.00
2023-02-24T06:07:46.333Z,585.00
2023-02-24T06:08:46.336Z,582.00
2023-02-24T06:09:46.333Z,579.00
2023-02-24T06:10:46.327Z,580.00
2023-02-24T06:11:46.355Z,582.00
2023-02-24T06:12:46.312Z,582.00
2023-02-24T06:13:46.307Z,580.00
2023-02-24T06:14:46.303Z,577.00
2023-02-24T06:15:46.317Z,577.00
2023-02-24T06:16:46.379Z,579.00
2023-02-24T06:17:46.278Z,580.00
2023-02-24T06:18:46.304Z,581.00
2023-02-24T06:19:46.268Z,582.00
2023-02-24T06:20:46.263Z,579.00
2023-02-24T06:21:46.249Z,577.00
2023-02-24T06:22:46.297Z,575.00
2023-02-24T06:23:46.239Z,575.00
2023-02-24T06:24:46.244Z,572.00
2023-02-24T06:25:46.226Z,570.00
2023-02-24T06:26:46.222Z,571.00
2023-02-24T06:27:46.207Z,571.00
2023-02-24T06:28:46.216Z,571.00
2023-02-24T06:29:46.194Z,573.00
2023-02-24T06:30:46.257Z,574.00
2023-02-24T06:31:46.261Z,575.00
2023-02-24T06:32:46.301Z,577.00
2023-02-24T06:33:46.164Z,658.00
2023-02-24T06:34:46.164Z,725.00
2023-02-24T06:35:46.145Z,741.00
2023-02-24T06:36:46.126Z,769.00
2023-02-24T06:37:46.128Z,896.00
2023-02-24T06:38:46.105Z,901.00
2023-02-24T06:39:46.117Z,929.00
2023-02-24T06:40:46.069Z,957.00
2023-02-24T06:41:46.056Z,969.00
2023-02-24T06:42:46.051Z,978.00
2023-02-24T06:43:46.037Z,992.00
2023-02-24T06:44:46.019Z,1037.00
2023-02-24T06:45:46.033Z,1083.00
2023-02-24T06:46:45.977Z,1080.00
2023-02-24T06:47:45.952Z,1094.00
2023-02-24T06:48:46.032Z,1098.00
2023-02-24T06:49:45.928Z,1113.00
2023-02-24T06:50:45.917Z,1117.00
2023-02-24T06:51:45.921Z,1120.00
2023-02-24T06:52:45.882Z,1121.00
2023-02-24T06:53:45.856Z,1124.00
2023-02-24T06:54:45.850Z,1188.00
2023-02-24T06:55:45.823Z,1210.00
2023-02-24T06:56:45.834Z,1232.00
2023-02-24T06:57:45.791Z,1256.00
2023-02-24T06:58:45.766Z,1276.00
2023-02-24T06:59:45.768Z,1292.00
2023-02-24T07:00:45.741Z,1323.00
2023-02-24T07:33:45.952Z,2071.00
2023-02-24T09:02:43.841Z,627.00
2023-02-24T14:22:39.686Z,1139.00
2023-02-24T14:23:39.651Z,1138.00
2023-02-24T14:24:39.626Z,1134.00
2023-02-24T14:25:39.590Z,1134.00
2023-02-24T14:26:39.555Z,1131.00
2023-02-24T14:27:39.521Z,1129.00
2023-02-24T14:28:39.495Z,1127.00
2023-02-24T14:29:44.085Z,1126.00
2023-02-24T14:30:40.448Z,1124.00
2023-02-24T14:31:39.725Z,1120.00
2023-02-24T14:32:39.372Z,1122.00
2023-02-24T14:33:39.386Z,1120.00
2023-02-24T14:34:39.261Z,1117.00
2023-02-24T14:35:39.229Z,1119.00
2023-02-24T14:36:39.205Z,1118.00
2023-02-24T14:37:39.168Z,1117.00
2023-02-24T14:38:39.158Z,1114.00
2023-02-24T14:39:39.095Z,1114.00
2023-02-24T14:40:39.068Z,1111.00
2023-02-24T14:41:39.034Z,1110.00
2023-02-24T14:42:39.026Z,1108.00
2023-02-24T14:43:39.002Z,1108.00
2023-02-24T14:44:38.973Z,1105.00
2023-02-24T14:45:38.957Z,1106.00
2023-02-24T14:46:38.941Z,1107.00
2023-02-24T14:47:38.867Z,1111.00
2023-02-24T14:48:38.844Z,1111.00
2023-02-24T14:49:38.843Z,1108.00
2023-02-24T14:50:38.864Z,1109.00
2023-02-24T14:51:38.742Z,1108.00
2023-02-24T14:52:38.705Z,1103.00
2023-02-24T14:53:38.681Z,1102.00
2023-02-24T14:54:38.646Z,1103.00
2023-02-24T14:55:38.645Z,1103.00
2023-02-24T14:56:38.582Z,1104.00
2023-02-24T14:57:38.552Z,1102.00
2023-02-24T14:58:38.577Z,1101.00
2023-02-24T14:59:38.514Z,1098.00
2023-02-24T15:00:38.486Z,1097.00
2023-02-24T15:01:38.505Z,1097.00
2023-02-24T15:02:38.418Z,1097.00
2023-02-24T15:03:38.485Z,1093.00
2023-02-24T15:04:38.368Z,1089.00
2023-02-24T15:05:38.324Z,1086.00
2023-02-24T15:06:38.303Z,1087.00
2023-02-24T15:07:38.273Z,1084.00
2023-02-24T15:08:38.245Z,1083.00
2023-02-24T15:09:38.211Z,1083.00
2023-02-24T15:10:38.182Z,1084.00
2023-02-24T15:11:38.165Z,1085.00
2023-02-24T15:12:38.127Z,1087.00
2023-02-24T15:13:38.093Z,1085.00
2023-02-24T15:14:38.085Z,1083.00
2023-02-24T15:15:38.073Z,1084.00
2023-02-24T15:16:38.098Z,1086.00
2023-02-24T15:17:38.006Z,1084.00
2023-02-24T15:18:37.970Z,1082.00
2023-02-24T15:19:37.950Z,1082.00
2023-02-24T15:20:37.908Z,1081.00
2023-02-24T15:21:37.893Z,1083.00
2023-02-24T15:22:37.868Z,1080.00
2023-02-24T15:23:37.832Z,1077.00
2023-02-24T15:24:37.991Z,1077.00
2023-02-24T15:25:42.922Z,1073.00
2023-02-24T15:26:38.775Z,1071.00
2023-02-24T15:27:37.768Z,1071.00
2023-02-24T15:28:37.741Z,1071.00
2023-02-24T15:29:37.741Z,1072.00
2023-02-24T15:30:37.764Z,1071.00
2023-02-24T15:31:37.819Z,1069.00
2023-02-24T15:32:37.892Z,1067.00
2023-02-24T15:33:37.685Z,1071.00
2023-02-24T15:34:37.676Z,1075.00
2023-02-24T15:35:37.656Z,1074.00
2023-02-24T15:36:37.628Z,1073.00
2023-02-24T15:37:37.611Z,1070.00
2023-02-24T15:38:37.611Z,1068.00
2023-02-24T15:39:37.584Z,1065.00
2023-02-24T15:40:37.559Z,1066.00
2023-02-24T15:41:37.555Z,1065.00
2023-02-24T15:42:37.541Z,1060.00
2023-02-24T15:43:37.538Z,1058.00
2023-02-24T15:44:37.526Z,1058.00
2023-02-24T15:45:37.511Z,1060.00
2023-02-24T15:46:37.539Z,1059.00
2023-02-24T15:47:37.479Z,1061.00
2023-02-24T15:48:37.459Z,1058.00
2023-02-24T15:49:37.430Z,1061.00
2023-02-24T15:50:37.421Z,1061.00
2023-02-24T15:51:37.393Z,1060.00
2023-02-24T15:52:37.360Z,1062.00
2023-02-24T15:53:37.342Z,1063.00
2023-02-24T15:54:37.350Z,1064.00
2023-02-24T15:55:37.287Z,1062.00
2023-02-24T15:56:37.268Z,1060.00
2023-02-24T15:57:37.249Z,1058.00
2023-02-24T15:58:37.229Z,1055.00
2023-02-24T15:59:37.222Z,1054.00
2023-02-24T16:00:37.246Z,1057.00
2023-02-24T16:01:37.160Z,1060.00
2023-02-24T16:02:37.142Z,1061.00
2023-02-24T16:03:37.164Z,1060.00
2023-02-24T16:04:37.100Z,1058.00
2023-02-24T16:05:37.079Z,1057.00
2023-02-24T16:06:37.068Z,1055.00
2023-02-24T16:07:37.032Z,1053.00
2023-02-24T16:08:36.998Z,1051.00
2023-02-24T16:09:36.974Z,1047.00
2023-02-24T16:10:36.952Z,1043.00
2023-02-24T16:11:36.918Z,1044.00
2023-02-24T16:12:36.902Z,1041.00
2023-02-24T16:13:36.876Z,1041.00
2023-02-24T16:14:36.860Z,1042.00
2023-02-24T16:15:36.847Z,1039.00
2023-02-24T16:16:36.920Z,1039.00
2023-02-24T16:17:36.792Z,1039.00
2023-02-24T16:18:36.789Z,1038.00
2023-02-24T16:19:36.756Z,1040.00
2023-02-24T16:20:36.728Z,1041.00
2023-02-24T16:21:36.710Z,1042.00
2023-02-24T16:22:36.705Z,1040.00
2023-02-24T16:23:36.674Z,1044.00
2023-02-24T16:24:36.657Z,1044.00
2023-02-24T16:25:36.632Z,1043.00
2023-02-24T16:26:36.615Z,1044.00
2023-02-24T16:27:36.595Z,1044.00
2023-02-24T16:28:36.565Z,1044.00
2023-02-24T16:29:36.562Z,1042.00
2023-02-24T16:30:36.643Z,1041.00
2023-02-24T16:31:36.781Z,1042.00
2023-02-24T16:32:36.613Z,1040.00
2023-02-24T16:33:51.772Z,1038.00
2023-02-24T16:35:36.423Z,1034.00
2023-02-24T16:36:36.410Z,1033.00
2023-02-24T16:37:36.390Z,1033.00
2023-02-24T16:38:36.378Z,1030.00
2023-02-24T16:39:36.352Z,1030.00
2023-02-24T16:40:36.336Z,1031.00
2023-02-24T16:41:36.327Z,1032.00
2023-02-24T16:42:36.295Z,1033.00
2023-02-24T16:43:36.275Z,1029.00
2023-02-24T16:44:36.269Z,1030.00
2023-02-24T16:45:36.319Z,1029.00
2023-02-24T16:46:36.218Z,1027.00
2023-02-24T16:47:36.208Z,1026.00
2023-02-24T16:48:36.178Z,1024.00
2023-02-24T16:49:36.173Z,1024.00
2023-02-24T16:50:36.157Z,1027.00
2023-02-24T16:51:36.112Z,1027.00
2023-02-24T16:52:36.095Z,1026.00
2023-02-24T16:53:36.080Z,1023.00
2023-02-24T17:06:35.813Z,1019.00
2023-02-24T17:07:35.804Z,1020.00
2023-02-24T17:08:35.770Z,1018.00
2023-02-24T17:09:35.749Z,1015.00
2023-02-24T17:10:35.730Z,1012.00
2023-02-24T19:06:33.972Z,948.00
2023-02-24T23:50:30.136Z,815.00
2023-02-24T23:52:30.114Z,815.00
2023-02-24T23:55:30.037Z,810.00
2023-02-24T23:56:30.051Z,811.00
2023-02-24T23:57:30.018Z,810.00
2023-02-24T23:58:29.994Z,809.00
2023-02-24T23:59:29.975Z,809.00
